createdAt,value
2023-01-22T00:00:56.146Z,13.80
2023-01-22T00:03:46.555Z,16.70
2023-01-22T00:06:34.576Z,16.90
2023-01-22T00:09:22.513Z,18.10
2023-01-22T00:12:10.066Z,18.10
2023-01-22T00:14:57.648Z,20.00
2023-01-22T00:17:45.415Z,18.90
2023-01-22T00:20:33.632Z,21.20
2023-01-22T00:23:21.394Z,20.40
2023-01-22T00:26:14.125Z,21.40
2023-01-22T00:29:01.999Z,16.90
2023-01-22T00:31:49.699Z,18.00
2023-01-22T00:34:37.251Z,18.70
2023-01-22T00:37:24.732Z,18.90
2023-01-22T00:40:12.703Z,19.50
2023-01-22T00:43:00.153Z,23.70
2023-01-22T00:45:47.708Z,21.80
2023-01-22T00:48:35.591Z,16.30
2023-01-22T00:51:23.168Z,16.00
2023-01-22T00:54:10.710Z,18.80
2023-01-22T00:56:58.099Z,18.20
2023-01-22T00:59:46.318Z,16.30
2023-01-22T01:02:33.856Z,22.30
2023-01-22T01:05:21.318Z,20.50
2023-01-22T01:08:08.759Z,18.70
2023-01-22T01:10:57.259Z,21.80
2023-01-22T01:13:44.950Z,16.40
2023-01-22T01:16:32.590Z,21.10
2023-01-22T01:19:22.904Z,22.10
2023-01-22T01:22:11.762Z,23.30
2023-01-22T01:24:59.889Z,28.20
2023-01-22T01:27:47.327Z,27.80
2023-01-22T01:30:34.811Z,29.00
2023-01-22T01:33:22.379Z,28.20
2023-01-22T01:36:35.471Z,25.60
2023-01-22T01:39:28.437Z,27.70
2023-01-22T01:42:15.844Z,28.70
2023-01-22T01:45:38.969Z,31.20
2023-01-22T01:51:17.340Z,25.40
2023-01-22T01:54:04.876Z,29.50
2023-01-22T01:56:55.887Z,26.30
2023-01-22T01:59:43.572Z,31.00
2023-01-22T02:02:31.081Z,29.00
2023-01-22T02:05:20.646Z,27.80
2023-01-22T02:08:08.094Z,25.70
2023-01-22T02:10:56.258Z,28.60
2023-01-22T02:13:51.378Z,25.60
2023-01-22T02:16:39.059Z,27.00
2023-01-22T02:19:26.601Z,26.10
2023-01-22T02:22:35.995Z,26.20
2023-01-22T02:25:23.827Z,27.00
2023-01-22T02:28:11.448Z,27.90
2023-01-22T02:30:58.991Z,29.90
2023-01-22T02:33:46.655Z,28.00
2023-01-22T02:36:35.952Z,28.60
2023-01-22T02:39:23.589Z,23.70
2023-01-22T02:42:11.464Z,25.10
2023-01-22T02:44:59.182Z,28.00
2023-01-22T02:47:46.714Z,25.00
2023-01-22T02:50:35.490Z,25.90
2023-01-22T02:53:22.945Z,25.20
2023-01-22T02:56:10.978Z,23.90
2023-01-22T02:59:00.687Z,28.80
2023-01-22T03:01:48.290Z,27.80
2023-01-22T03:04:36.191Z,23.40
2023-01-22T03:07:23.833Z,23.80
2023-01-22T03:10:17.046Z,28.90
2023-01-22T03:13:23.728Z,27.00
2023-01-22T03:16:29.836Z,26.70
2023-01-22T03:19:36.329Z,27.10
2023-01-22T03:22:24.070Z,29.60
2023-01-22T03:25:11.573Z,25.30
2023-01-22T03:28:18.764Z,29.10
2023-01-22T03:31:11.307Z,25.00
2023-01-22T03:33:58.809Z,27.40
2023-01-22T03:36:46.579Z,26.00
2023-01-22T03:39:34.374Z,30.30
2023-01-22T03:42:24.969Z,28.60
2023-01-22T03:45:12.568Z,26.70
2023-01-22T03:48:00.061Z,29.90
2023-01-22T03:50:51.032Z,32.30
2023-01-22T03:53:38.989Z,33.20
2023-01-22T03:56:26.578Z,32.20
2023-01-22T03:59:17.691Z,32.60
2023-01-22T06:06:53.865Z,57.90
2023-01-22T06:09:42.125Z,80.30
2023-01-22T06:12:33.037Z,85.50
2023-01-22T06:15:20.548Z,90.60
2023-01-22T06:18:12.100Z,92.00
2023-01-22T06:21:04.359Z,80.10
2023-01-22T06:26:39.701Z,66.40
2023-01-22T06:29:28.859Z,46.20
2023-01-22T06:32:16.490Z,32.90
2023-01-22T06:35:04.805Z,30.80
2023-01-22T06:37:53.217Z,40.60
2023-01-22T06:40:40.704Z,31.50
2023-01-22T06:43:28.423Z,27.90
2023-01-22T06:46:16.015Z,26.00
2023-01-22T06:49:15.543Z,22.00
2023-01-22T06:52:07.195Z,20.40
2023-01-22T06:54:54.926Z,25.70
2023-01-22T06:57:45.360Z,26.60
2023-01-22T07:00:33.829Z,27.80
2023-01-22T07:03:26.692Z,32.20
2023-01-22T07:06:18.730Z,32.10
2023-01-22T07:09:06.192Z,28.20
2023-01-22T07:11:53.974Z,40.00
2023-01-22T07:14:41.506Z,34.00
2023-01-22T07:17:29.008Z,26.70
2023-01-22T07:20:17.306Z,18.70
2023-01-22T07:23:05.274Z,24.10
2023-01-22T07:25:52.779Z,23.50
2023-01-22T07:28:40.347Z,27.70
2023-01-22T07:31:27.926Z,27.30
2023-01-22T07:34:15.711Z,27.50
2023-01-22T07:37:04.168Z,24.90
2023-01-22T07:39:57.251Z,24.80
2023-01-22T07:42:44.819Z,20.20
2023-01-22T07:45:33.651Z,28.60
2023-01-22T07:48:21.628Z,26.40
2023-01-22T07:51:09.604Z,24.90
2023-01-22T07:53:57.978Z,26.80
2023-01-22T07:56:45.940Z,26.90
2023-01-22T07:59:35.160Z,23.70
2023-01-22T08:02:22.805Z,24.90
2023-01-22T08:05:11.307Z,20.50
2023-01-22T08:07:59.216Z,30.80
2023-01-22T08:10:46.941Z,32.00
2023-01-22T08:13:34.472Z,31.40
2023-01-22T08:16:22.082Z,27.00
2023-01-22T08:19:09.965Z,28.40
2023-01-22T08:21:57.406Z,24.80
2023-01-22T08:24:44.938Z,17.60
2023-01-22T08:27:35.149Z,21.30
2023-01-22T08:30:23.174Z,22.10
2023-01-22T08:33:11.303Z,19.80
2023-01-22T08:35:59.148Z,22.90
2023-01-22T08:38:46.752Z,19.70
2023-01-22T08:41:34.503Z,16.60
2023-01-22T08:44:22.836Z,14.50
2023-01-22T08:47:11.839Z,19.60
2023-01-22T08:49:59.367Z,17.10
2023-01-22T08:52:50.247Z,15.40
2023-01-22T08:55:38.112Z,18.90
2023-01-22T08:58:27.868Z,17.80
2023-01-22T09:01:17.111Z,17.60
2023-01-22T09:04:07.168Z,20.80
2023-01-22T09:06:54.841Z,22.90
2023-01-22T09:09:42.420Z,18.70
2023-01-22T09:12:29.987Z,28.80
2023-01-22T09:15:17.742Z,21.00
2023-01-22T09:18:05.391Z,22.30
2023-01-22T09:20:52.983Z,26.00
2023-01-22T09:23:40.615Z,24.40
2023-01-22T09:26:28.192Z,29.50
2023-01-22T09:29:16.184Z,26.80
2023-01-22T09:32:04.005Z,27.50
2023-01-22T09:34:51.813Z,22.30
2023-01-22T09:37:39.715Z,25.80
2023-01-22T09:40:28.399Z,21.50
2023-01-22T09:43:25.339Z,21.10
2023-01-22T09:46:17.317Z,18.90
2023-01-22T09:49:08.490Z,14.70
2023-01-22T09:52:00.974Z,27.70
2023-01-22T09:54:49.331Z,20.80
2023-01-22T09:57:37.520Z,23.10
2023-01-22T12:04:45.168Z,33.10
2023-01-22T12:07:42.039Z,40.70
2023-01-22T12:10:47.786Z,52.70
2023-01-22T12:13:50.672Z,54.00
2023-01-22T12:16:50.492Z,55.40
2023-01-22T12:20:07.298Z,33.50
2023-01-22T12:23:06.859Z,27.20
2023-01-22T12:25:58.678Z,25.40
2023-01-22T12:29:10.641Z,25.80
2023-01-22T12:32:13.011Z,24.80
2023-01-22T12:35:05.457Z,17.30
2023-01-22T12:37:58.225Z,19.90
2023-01-22T12:41:23.471Z,23.90
2023-01-22T12:44:24.391Z,22.90
2023-01-22T12:47:19.791Z,24.90
2023-01-22T12:50:25.338Z,21.70
2023-01-22T12:53:23.306Z,18.80
2023-01-22T12:56:11.104Z,25.50
2023-01-22T12:58:58.876Z,19.70
2023-01-22T13:01:46.619Z,22.70
2023-01-22T13:04:34.220Z,25.30
2023-01-22T13:07:36.809Z,23.50
2023-01-22T13:10:33.218Z,20.50
2023-01-22T13:13:40.047Z,26.80
2023-01-22T13:16:35.736Z,24.60
2023-01-22T13:19:25.939Z,25.70
2023-01-22T13:22:15.849Z,27.50
2023-01-22T13:25:03.518Z,20.90
2023-01-22T13:27:51.031Z,21.80
2023-01-22T13:30:38.695Z,23.30
2023-01-22T13:33:26.435Z,21.40
2023-01-22T13:36:15.070Z,24.70
2023-01-22T13:39:02.750Z,17.60
2023-01-22T13:41:55.370Z,22.90
2023-01-22T13:44:49.034Z,21.10
2023-01-22T13:47:37.124Z,20.70
2023-01-22T13:50:26.611Z,21.70
2023-01-22T13:53:32.997Z,20.60
2023-01-22T13:56:21.521Z,23.20
2023-01-22T13:59:17.783Z,23.90
2023-01-22T14:02:24.066Z,17.00
2023-01-22T14:05:23.262Z,16.90
2023-01-22T14:08:12.547Z,24.50
2023-01-22T14:11:00.583Z,25.80
2023-01-22T14:13:51.258Z,22.00
2023-01-22T14:16:40.552Z,23.40
2023-01-22T14:19:29.118Z,21.10
2023-01-22T14:22:16.969Z,19.30
2023-01-22T14:25:04.772Z,23.50
2023-01-22T14:27:52.356Z,20.20
2023-01-22T14:30:39.922Z,18.90
2023-01-22T14:33:32.142Z,22.90
2023-01-22T14:36:20.564Z,19.20
2023-01-22T14:39:08.147Z,21.20
2023-01-22T14:41:55.845Z,22.00
2023-01-22T14:44:43.520Z,23.00
2023-01-22T14:47:31.158Z,17.00
2023-01-22T14:50:19.830Z,18.10
2023-01-22T14:53:07.950Z,20.50
2023-01-22T14:55:55.528Z,18.20
2023-01-22T14:58:43.143Z,20.70
2023-01-22T15:01:30.892Z,22.40
2023-01-22T15:04:19.043Z,19.20
2023-01-22T15:07:06.698Z,24.30
2023-01-22T15:09:54.491Z,23.70
2023-01-22T15:12:45.956Z,20.70
2023-01-22T15:15:33.701Z,19.90
2023-01-22T15:18:21.229Z,20.80
2023-01-22T15:21:09.613Z,20.70
2023-01-22T15:23:57.447Z,23.60
2023-01-22T15:26:45.082Z,18.50
2023-01-22T15:29:32.783Z,17.00
2023-01-22T15:32:20.531Z,20.20
2023-01-22T15:35:08.754Z,18.10
2023-01-22T15:37:56.618Z,18.30
2023-01-22T15:40:44.222Z,22.60
2023-01-22T15:43:31.961Z,20.60
2023-01-22T15:46:20.935Z,20.50
2023-01-22T15:49:08.811Z,17.50
2023-01-22T15:52:00.048Z,18.40
2023-01-22T15:54:47.876Z,19.80
2023-01-22T15:57:36.666Z,18.30
2023-01-22T16:00:27.837Z,15.50
2023-01-22T18:07:10.765Z,28.70
2023-01-22T18:09:58.350Z,42.70
2023-01-22T18:12:45.972Z,37.50
2023-01-22T18:15:34.875Z,37.90
2023-01-22T18:18:22.707Z,26.70
2023-01-22T18:21:16.567Z,17.60
2023-01-22T18:24:05.750Z,21.60
2023-01-22T18:26:54.887Z,13.50
2023-01-22T18:29:42.602Z,17.00
2023-01-22T18:32:31.005Z,16.70
2023-01-22T18:35:18.975Z,14.80
2023-01-22T18:38:06.936Z,20.50
2023-01-22T18:40:54.925Z,21.70
2023-01-22T18:43:43.097Z,17.40
2023-01-22T18:46:33.832Z,24.10
2023-01-22T18:49:23.247Z,21.60
2023-01-22T18:52:10.816Z,17.60
2023-01-22T18:54:58.628Z,16.00
2023-01-22T18:58:03.799Z,22.40
2023-01-22T19:00:55.265Z,18.80
2023-01-22T19:03:44.194Z,21.20
2023-01-22T19:06:37.183Z,19.60
2023-01-22T19:09:27.062Z,29.20
2023-01-22T19:12:18.713Z,23.40
2023-01-22T19:15:07.088Z,22.60
2023-01-22T19:17:54.785Z,22.00
2023-01-22T19:20:43.898Z,24.90
2023-01-22T19:23:32.345Z,26.80
2023-01-22T19:26:23.388Z,20.80
2023-01-22T19:29:12.948Z,23.40
2023-01-22T19:32:00.434Z,24.00
2023-01-22T19:34:47.874Z,22.80
2023-01-22T19:37:35.528Z,22.40
2023-01-22T19:40:23.265Z,24.70
2023-01-22T19:43:10.919Z,28.10
2023-01-22T19:46:05.866Z,24.30
2023-01-22T19:48:56.738Z,23.60
2023-01-22T19:51:45.401Z,23.40
2023-01-22T19:54:33.294Z,22.80
2023-01-22T19:57:21.803Z,17.10
2023-01-22T20:00:10.282Z,20.10
2023-01-22T20:02:58.249Z,21.00
2023-01-22T20:05:46.046Z,24.60
2023-01-22T20:08:36.540Z,21.20
2023-01-22T20:11:24.396Z,27.00
2023-01-22T20:14:12.109Z,25.50
2023-01-22T20:17:00.333Z,26.50
2023-01-22T20:19:48.925Z,23.30
2023-01-22T20:22:41.013Z,20.20
2023-01-22T20:25:32.410Z,15.50
2023-01-22T20:28:20.148Z,19.00
2023-01-22T20:31:10.143Z,19.60
2023-01-22T20:34:02.608Z,21.50
2023-01-22T20:36:50.160Z,22.40
2023-01-22T20:39:37.804Z,21.90
2023-01-22T20:42:25.621Z,29.40
2023-01-22T20:45:13.580Z,24.30
2023-01-22T20:48:01.412Z,25.80
2023-01-22T20:50:48.901Z,23.30
2023-01-22T20:53:36.776Z,23.00
2023-01-22T20:56:31.555Z,21.40
2023-01-22T20:59:19.884Z,26.30
2023-01-22T21:02:09.540Z,21.70
2023-01-22T21:04:57.440Z,21.40
2023-01-22T21:07:45.182Z,25.70
2023-01-22T21:10:36.904Z,24.90
2023-01-22T21:13:24.663Z,31.50
2023-01-22T21:16:14.429Z,25.80
2023-01-22T21:19:04.330Z,26.10
2023-01-22T21:21:52.620Z,22.60
2023-01-22T21:24:40.407Z,24.40
2023-01-22T21:27:28.742Z,25.30
2023-01-22T21:30:16.760Z,27.60
2023-01-22T21:33:04.829Z,28.90
2023-01-22T21:35:52.423Z,21.60
2023-01-22T21:38:40.194Z,32.50
2023-01-22T21:41:28.039Z,30.90
2023-01-22T21:44:36.063Z,28.60
2023-01-22T21:47:23.657Z,25.50
2023-01-22T21:50:11.398Z,34.40
2023-01-22T21:52:59.140Z,28.60
2023-01-22T21:55:53.102Z,22.80
2023-01-22T21:58:45.236Z,25.50
2023-01-22T22:01:34.279Z,26.40
2023-01-22T22:04:23.612Z,22.70
2023-01-22T22:07:11.837Z,33.20
2023-01-22T22:09:59.340Z,29.80
2023-01-22T22:12:47.028Z,24.40
2023-01-22T22:15:34.847Z,23.10
2023-01-22T22:18:22.401Z,27.40
2023-01-22T22:21:09.972Z,28.90
2023-01-22T22:23:58.270Z,25.00
2023-01-22T22:26:45.980Z,24.90
2023-01-22T22:29:33.715Z,25.50
2023-01-22T22:32:21.685Z,23.20
2023-01-22T22:35:09.422Z,21.00
2023-01-22T22:37:56.987Z,23.00
2023-01-22T22:40:44.521Z,21.00
2023-01-22T22:43:37.847Z,19.90
2023-01-22T22:46:28.008Z,22.50
2023-01-22T22:49:15.519Z,19.30
2023-01-22T22:52:03.167Z,21.10
2023-01-22T22:54:50.730Z,25.30
2023-01-22T22:57:38.233Z,23.30
2023-01-22T23:00:25.906Z,22.70
2023-01-22T23:03:13.512Z,22.00
2023-01-22T23:06:08.621Z,16.30
2023-01-22T23:08:56.730Z,16.60
2023-01-22T23:11:44.407Z,15.70
2023-01-22T23:14:31.969Z,18.10
2023-01-22T23:17:19.733Z,12.60
2023-01-22T23:20:07.684Z,15.30
2023-01-22T23:22:56.713Z,21.40
2023-01-22T23:25:44.652Z,18.20
2023-01-22T23:28:32.474Z,23.10
2023-01-22T23:31:20.375Z,21.10
2023-01-22T23:34:11.006Z,21.20
2023-01-22T23:36:58.666Z,20.70
2023-01-22T23:39:47.573Z,22.30
2023-01-22T23:42:35.272Z,27.30
2023-01-22T23:45:22.827Z,29.20
2023-01-22T23:48:10.440Z,19.40
2023-01-22T23:50:58.104Z,23.30
2023-01-22T23:53:51.835Z,17.60
2023-01-22T23:56:39.418Z,21.00
2023-01-22T23:59:26.829Z,20.30
